GCRRLEVX

Guest
Details From GCRR - Lanzarote
To LEVX - Vigo
Flight Number -
Tags Generated
Created
Modified
Stats Distance 834 nm / 1,544 km
Max Altitude 0 ft / 0 m
Waypoints 3
Social Downloads 2
Likes 0
Share VATSIM

Download

Looking for another format? Having issues loading an existing format? Contact us
Advertisement - Login to hide

Notes

Generated

Route

GCRR VON LEVX

ID Type Via Altitude Latitude Longitude Leg Dist Tot Dist Heading (true) Name
O GCRR APT - 0 ft / 0 m 28.93584˚ -13.61080˚ - 0 nm - -
VON NDB - 0 ft / 0 m 42.18604˚ -8.63900˚ 831 nm 831 nm 16° / 18° VIGO NDB
O LEVX APT - 0 ft / 0 m 42.22128˚ -8.62966˚ 2 nm 833 nm 11° / 11° -

Altitude Profile

Advertisement - Login to hide

Weather


0- 5 10 15 20 25 30 35+ Temperature / ° C

Clouds and Precipitation
Forecast for 2017-12-12 12:00 UTC. Updated 42 minutes ago

Ground ~20,000 ft ~40,000 ft Winds

GCRR

Details ICAO GCRR (ACE)
Name Lanzarote
Region Canary Islands
Timezone Atlantic/Canary (UTC+0.0)
Stats Elevation 0 ft / 0 m (AMSL)
Location 28.945466° -13.605223°
Runways 1
Magnetic Variation 3.977° W

METAR

GCRR 121200Z 02026KT 350V060 9999 SCT040 20/10 Q1018

Decode

TAF

TAF GCRR 120800Z 1209/1309 36018KT 9999 FEW040 TX21/1215Z TN15/1306Z TEMPO 1209/1309 36018G30KT

Decode

Departure Runways

ID Width Length Bearing (true) Bearing (mag) Surface Threshold Offset Overrun Length
03 148 ft / 45 m 7,893 ft / 2,406 m 26.90° 30.88° Asphalt 197 ft / 60 m 197 ft / 60 m
21 148 ft / 45 m 7,893 ft / 2,406 m 206.91° 210.89° Asphalt 197 ft / 60 m 197 ft / 60 m

LEVX

Details ICAO LEVX (VGO)
Name Vigo
Region Spain
Timezone Europe/Madrid (UTC+1.0)
Stats Elevation 855 ft / 261 m (AMSL)
Location 42.231894° -8.626774°
Runways 1
Magnetic Variation 2.391° W

METAR

LEVX 121200Z 21005KT 160V240 9999 BCFG BKN045 07/05 Q1021 NOSIG

Decode

TAF

TAF LEVX 121100Z 1212/1312 19007KT 9999 SCT040 TX11/1214Z TN07/1307Z TEMPO 1221/1312 BKN010 TEMPO 1300/1312 1500 -RADZ BR BKN002

Decode

Destination Runways

ID Width Length Bearing (true) Bearing (mag) Surface Threshold Offset Overrun Length
02 148 ft / 45 m 7,905 ft / 2,409 m 11.38° 13.77° Asphalt 0 ft / 0 m 164 ft / 50 m
20 148 ft / 45 m 7,905 ft / 2,409 m 191.38° 193.77° Asphalt 0 ft / 0 m 164 ft / 50 m

Approach Navaids

Runway Type Ident Frequency Range Bearing (true) Bearing (mag) Slope Elevation
20 Localiser VIG 110.90 MHz 18 nm / 33 km 191.38° 193.77° - 855 ft / 261 m (AMSL)
20 Glidescope VIG 110.90 MHz 10 nm / 19 km 191.38° 193.77° 3.00° 855 ft / 261 m (AMSL)
20 DME VIG 110.90 MHz 18 nm / 33 km - - - 833 ft / 254 m (AMSL)